createdAt,value
2022-10-29T00:04:57.637Z,18.2
2022-10-29T00:15:01.964Z,18.1
2022-10-29T00:25:03.520Z,17.8
2022-10-29T00:35:12.333Z,17.8
2022-10-29T00:45:13.938Z,17.7
2022-10-29T01:15:21.487Z,17.5
2022-10-29T01:25:30.380Z,17.5
2022-10-29T01:35:39.237Z,17.4
2022-10-29T01:45:41.002Z,17.4
2022-10-29T02:05:46.848Z,17.1
2022-10-29T02:15:55.658Z,17.1
2022-10-29T02:36:06.232Z,17.1
2022-10-29T02:46:10.505Z,17.1
2022-10-29T02:56:12.120Z,16.8
2022-10-29T03:06:14.634Z,16.9
2022-10-29T03:16:17.269Z,16.9
2022-10-29T03:26:26.296Z,16.9
2022-10-29T03:36:27.770Z,16.9
2022-10-29T03:46:36.771Z,16.8
2022-10-29T04:06:47.281Z,16.6
2022-10-29T04:16:57.114Z,16.4
2022-10-29T04:37:05.929Z,16.1
2022-10-29T04:47:07.519Z,16.1
2022-10-29T05:07:10.623Z,15.8
2022-10-29T05:17:12.239Z,15.6
2022-10-29T05:27:21.204Z,15.5
2022-10-29T05:37:22.782Z,15.4
2022-10-29T05:47:26.369Z,15.5
2022-10-29T05:57:28.062Z,15.5
2022-10-29T06:17:31.829Z,15.3
2022-10-29T06:27:40.706Z,15.3
2022-10-29T06:37:44.914Z,15.4
2022-10-29T06:47:55.198Z,15.5
2022-10-29T06:57:54.049Z,15.5
2022-10-29T07:18:02.225Z,15.4
2022-10-29T07:28:11.048Z,15.4
2022-10-29T07:38:15.337Z,15.7
2022-10-29T07:48:16.901Z,16.3
2022-10-29T07:58:25.868Z,16.8
2022-10-29T08:08:30.107Z,17.3
2022-10-29T08:28:35.614Z,17.7
2022-10-29T08:38:33.988Z,18.4
2022-10-29T08:48:38.284Z,18.7
2022-10-29T09:08:50.426Z,19.3
2022-10-29T09:18:52.206Z,20
2022-10-29T09:38:56.595Z,20.6
2022-10-29T09:48:58.452Z,21
2022-10-29T09:59:07.664Z,21.5
2022-10-29T10:09:07.716Z,22
2022-10-29T10:19:09.461Z,22.4
2022-10-29T10:29:18.365Z,22.7
2022-10-29T10:59:33.014Z,23.7
2022-10-29T11:19:46.194Z,24.3
2022-10-29T11:49:48.614Z,24.5
2022-10-29T11:59:53.934Z,23.8
2022-10-29T12:09:56.644Z,23.6
2022-10-29T12:30:10.863Z,23.9
2022-10-29T12:40:16.485Z,23.5
2022-10-29T12:50:20.894Z,23.4
2022-10-29T13:00:25.465Z,23.5
2022-10-29T13:10:30.167Z,24
2022-10-29T13:20:35.112Z,23.8
2022-10-29T13:40:45.910Z,23.4
2022-10-29T13:50:46.914Z,23.6
2022-10-29T14:10:53.447Z,24.2
2022-10-29T14:30:58.632Z,23.5
2022-10-29T14:41:04.853Z,23.7
2022-10-29T14:51:06.924Z,23.2
2022-10-29T15:01:11.302Z,23.3
2022-10-29T15:11:12.666Z,23.7
2022-10-29T15:21:17.652Z,23.5
2022-10-29T15:31:22.076Z,23.1
2022-10-29T15:41:31.099Z,23.2
2022-10-29T15:51:31.609Z,23
2022-10-29T16:01:33.502Z,22.8
2022-10-29T16:21:45.953Z,22.9
2022-10-29T16:31:54.035Z,22.2
2022-10-29T16:42:03.147Z,22.1
2022-10-29T16:52:12.792Z,21.9
2022-10-29T17:02:19.114Z,21.7
2022-10-29T17:22:25.158Z,21
2022-10-29T17:32:26.945Z,21
2022-10-29T17:42:36.001Z,20.9
2022-10-29T17:52:37.803Z,20.9
2022-10-29T18:02:47.166Z,20.9
2022-10-29T18:33:02.315Z,20.8
2022-10-29T18:43:10.749Z,20.8
2022-10-29T18:53:19.810Z,20.5
2022-10-29T19:03:21.467Z,20.2
2022-10-29T19:13:21.614Z,20.1
2022-10-29T19:23:30.576Z,20.1
2022-10-29T19:33:39.615Z,20.1
2022-10-29T19:43:41.333Z,20
2022-10-29T19:53:43.162Z,20
2022-10-29T20:13:55.510Z,19.7
2022-10-29T20:23:55.784Z,19.7
2022-10-29T20:33:58.955Z,19.5
2022-10-29T20:43:59.859Z,19.4
2022-10-29T20:54:06.334Z,19.5
2022-10-29T21:04:10.487Z,19.5
2022-10-29T21:24:12.569Z,19.2
2022-10-29T21:34:21.922Z,19.3
2022-10-29T21:44:24.418Z,19.1
2022-10-29T21:54:28.327Z,19.1
2022-10-29T22:04:37.179Z,19.2
2022-10-29T22:14:37.352Z,19.3
2022-10-29T22:24:44.709Z,19.2
2022-10-29T22:34:51.592Z,19.2
2022-10-29T22:44:58.755Z,19
2022-10-29T22:54:59.644Z,19
2022-10-29T23:05:07.577Z,18.9
2022-10-29T23:25:12.179Z,18.7
2022-10-29T23:35:14.129Z,18.4
2022-10-29T23:45:21.992Z,18.3
2022-10-29T23:55:22.867Z,18.4
